createdAt,value
2023-09-01T00:01:31.060Z,100333.72
2023-09-01T00:04:19.970Z,100341.94
2023-09-01T00:06:47.396Z,100338.53
2023-09-01T00:09:15.720Z,100344.25
2023-09-01T00:11:44.484Z,100346.41
2023-09-01T00:14:11.929Z,100349.81
2023-09-01T00:16:39.230Z,100351.97
2023-09-01T00:19:06.719Z,100347.59
2023-09-01T00:21:34.985Z,100350.38
2023-09-01T00:24:04.842Z,100351.47
2023-09-01T00:26:32.229Z,100341.03
2023-09-01T00:29:00.206Z,100353.63
2023-09-01T00:31:28.692Z,100348.19
2023-09-01T00:33:55.680Z,100344.66
2023-09-01T00:36:24.036Z,100343.28
2023-09-01T00:38:51.848Z,100344.66
2023-09-01T00:41:19.790Z,100345.75
2023-09-01T00:43:46.773Z,100344.28
2023-09-01T00:46:14.151Z,100343.66
2023-09-01T00:48:42.048Z,100350.69
2023-09-01T00:51:10.230Z,100348.13
2023-09-01T00:53:38.902Z,100349.09
2023-09-01T00:56:06.081Z,100345.81
2023-09-01T00:58:33.482Z,100339.25
2023-09-01T01:01:01.544Z,100343.72
2023-09-01T01:03:28.741Z,100349.16
2023-09-01T01:06:11.030Z,100351.19
2023-09-01T01:08:45.794Z,100345.16
2023-09-01T01:11:21.051Z,100345.16
2023-09-01T01:13:50.321Z,100346.63
2023-09-01T01:16:21.101Z,100344.53
2023-09-01T01:18:52.673Z,100358.28
2023-09-01T01:21:27.221Z,100350.09
2023-09-01T01:23:57.418Z,100357.19
2023-09-01T01:26:26.303Z,100350.09
2023-09-01T01:28:55.597Z,100349.09
2023-09-01T01:31:25.936Z,100355.28
2023-09-01T01:33:59.599Z,100356.38
2023-09-01T01:36:55.425Z,100351.03
2023-09-01T01:39:26.911Z,100350.28
2023-09-01T01:42:04.529Z,100354.88
2023-09-01T01:44:39.210Z,100347.88
2023-09-01T01:47:09.458Z,100354.13
2023-09-01T01:49:36.932Z,100362.25
2023-09-01T01:52:06.526Z,100356.09
2023-09-01T01:54:36.038Z,100358.94
2023-09-01T01:57:06.123Z,100355.22
2023-09-01T01:59:35.743Z,100360.34
2023-09-01T02:02:07.047Z,100363.59
2023-09-01T02:04:34.487Z,100362.88
2023-09-01T02:07:01.555Z,100360.22
2023-09-01T02:09:30.544Z,100356.09
2023-09-01T02:11:58.463Z,100362.25
2023-09-01T02:14:26.212Z,100358.75
2023-09-01T02:16:54.162Z,100350.00
2023-09-01T02:19:21.121Z,100344.91
2023-09-01T02:21:48.466Z,100354.81
2023-09-01T02:24:15.679Z,100352.38
2023-09-01T02:26:44.542Z,100355.88
2023-09-01T02:29:13.800Z,100361.09
2023-09-01T02:31:44.782Z,100353.97
2023-09-01T02:34:12.812Z,100351.75
2023-09-01T02:36:40.326Z,100356.00
2023-09-01T02:39:10.836Z,100351.75
2023-09-01T02:41:37.782Z,100355.38
2023-09-01T02:44:07.594Z,100354.94
2023-09-01T02:46:34.591Z,100349.72
2023-09-01T02:49:03.890Z,100359.63
2023-09-01T02:51:31.261Z,100358.66
2023-09-01T02:53:59.797Z,100357.81
2023-09-01T02:56:26.796Z,100362.78
2023-09-01T02:58:55.360Z,100363.75
2023-09-01T03:01:23.033Z,100366.41
2023-09-01T03:03:51.251Z,100370.06
2023-09-01T03:06:18.665Z,100373.91
2023-09-01T03:08:47.270Z,100381.66
2023-09-01T03:11:14.278Z,100374.53
2023-09-01T03:13:43.273Z,100377.28
2023-09-01T03:16:10.630Z,100373.38
2023-09-01T03:18:38.001Z,100380.19
2023-09-01T03:21:12.789Z,100379.88
2023-09-01T03:23:41.234Z,100383.81
2023-09-01T03:26:10.204Z,100377.00
2023-09-01T03:28:37.996Z,100380.19
2023-09-01T03:31:10.312Z,100384.88
2023-09-01T03:33:39.266Z,100380.06
2023-09-01T03:36:09.260Z,100389.88
2023-09-01T03:38:39.751Z,100380.91
2023-09-01T03:41:09.132Z,100379.22
2023-09-01T03:43:36.803Z,100381.91
2023-09-01T03:46:08.483Z,100375.69
2023-09-01T03:48:37.349Z,100381.03
2023-09-01T03:51:11.502Z,100384.16
2023-09-01T03:53:48.089Z,100382.22
2023-09-01T03:56:20.984Z,100388.06
2023-09-01T03:58:49.368Z,100380.59
2023-09-01T04:01:17.701Z,100377.81
2023-09-01T04:03:49.796Z,100375.56
2023-09-01T04:06:17.166Z,100373.84
2023-09-01T04:08:44.160Z,100378.09
2023-09-01T04:11:11.173Z,100384.06
2023-09-01T04:13:40.578Z,100377.44
2023-09-01T04:16:09.408Z,100384.47
2023-09-01T04:18:36.607Z,100390.34
2023-09-01T04:21:06.581Z,100388.34
2023-09-01T04:23:33.807Z,100387.38
2023-09-01T04:26:03.676Z,100391.34
2023-09-01T04:28:35.156Z,100383.56
2023-09-01T04:31:05.105Z,100385.63
2023-09-01T04:33:34.179Z,100383.06
2023-09-01T04:36:04.591Z,100380.50
2023-09-01T04:38:32.851Z,100373.69
2023-09-01T04:41:03.304Z,100367.50
2023-09-01T04:43:34.725Z,100377.13
2023-09-01T04:49:07.588Z,100386.06
2023-09-01T04:51:35.946Z,100386.59
2023-09-01T04:54:04.095Z,100387.53
2023-09-01T04:56:34.402Z,100390.94
2023-09-01T04:59:02.974Z,100391.47
2023-09-01T05:01:31.976Z,100395.59
2023-09-01T05:04:04.446Z,100393.78
2023-09-01T05:06:31.493Z,100403.69
2023-09-01T05:08:58.947Z,100396.44
2023-09-01T05:11:28.216Z,100406.25
2023-09-01T05:14:01.674Z,100411.13
2023-09-01T05:16:29.035Z,100411.00
2023-09-01T05:19:00.905Z,100410.03
2023-09-01T05:21:33.199Z,100417.91
2023-09-01T05:24:00.223Z,100416.97
2023-09-01T05:26:29.492Z,100422.41
2023-09-01T05:29:06.273Z,100416.66
2023-09-01T05:31:33.291Z,100418.97
2023-09-01T05:34:03.456Z,100405.53
2023-09-01T05:36:32.200Z,100415.00
2023-09-01T05:38:59.260Z,100425.84
2023-09-01T05:41:26.585Z,100417.59
2023-09-01T05:43:56.638Z,100412.78
2023-09-01T05:46:31.115Z,100424.19
2023-09-01T05:48:59.075Z,100433.66
2023-09-01T05:51:26.091Z,100426.28
2023-09-01T05:53:53.491Z,100419.66
2023-09-01T05:56:22.068Z,100426.56
2023-09-01T05:58:52.951Z,100425.25
2023-09-01T06:01:20.872Z,100425.53
2023-09-01T06:03:51.286Z,100429.50
2023-09-01T06:06:18.248Z,100435.94
2023-09-01T06:08:50.023Z,100441.97
2023-09-01T06:11:17.360Z,100447.19
2023-09-01T06:13:44.621Z,100446.97
2023-09-01T06:16:11.704Z,100461.41
2023-09-01T06:18:40.281Z,100455.13
2023-09-01T06:21:07.688Z,100456.94
2023-09-01T06:23:36.077Z,100459.03
2023-09-01T06:26:06.334Z,100454.44
2023-09-01T06:28:34.934Z,100454.97
2023-09-01T06:31:02.628Z,100466.72
2023-09-01T06:33:30.828Z,100458.72
2023-09-01T06:35:57.960Z,100460.06
2023-09-01T06:38:25.993Z,100461.28
2023-09-01T06:40:54.783Z,100465.28
2023-09-01T06:43:23.818Z,100467.50
2023-09-01T06:45:51.201Z,100474.16
2023-09-01T06:48:18.367Z,100470.16
2023-09-01T06:50:50.518Z,100478.91
2023-09-01T06:53:17.466Z,100468.22
2023-09-01T06:55:47.543Z,100469.66
2023-09-01T06:58:15.617Z,100477.56
2023-09-01T07:00:42.913Z,100482.28
2023-09-01T07:03:09.842Z,100478.41
2023-09-01T07:05:39.927Z,100478.25
2023-09-01T07:08:14.182Z,100486.63
2023-09-01T07:10:42.559Z,100482.97
2023-09-01T07:13:13.160Z,100483.44
2023-09-01T07:15:40.097Z,100484.66
2023-09-01T07:18:09.955Z,100488.16
2023-09-01T07:20:39.168Z,100492.50
2023-09-01T07:23:06.571Z,100491.03
2023-09-01T07:25:33.486Z,100495.41
2023-09-01T07:28:00.895Z,100494.28
2023-09-01T07:30:27.865Z,100498.66
2023-09-01T07:32:55.008Z,100491.03
2023-09-01T07:35:24.969Z,100493.69
2023-09-01T07:37:54.130Z,100497.09
2023-09-01T07:40:21.878Z,100499.47
2023-09-01T07:42:49.739Z,100502.63
2023-09-01T07:45:17.712Z,100507.69
2023-09-01T07:47:49.622Z,100509.97
2023-09-01T07:50:22.283Z,100508.78
2023-09-01T07:52:49.233Z,100510.34
2023-09-01T07:55:16.201Z,100497.34
2023-09-01T07:57:44.718Z,100506.16
2023-09-01T08:00:13.732Z,100500.41
2023-09-01T08:02:42.952Z,100508.81
2023-09-01T08:05:10.798Z,100507.25
2023-09-01T08:07:40.744Z,100519.91
2023-09-01T08:10:10.675Z,100505.63
2023-09-01T08:12:40.354Z,100518.91
2023-09-01T08:15:17.156Z,100496.25
2023-09-01T08:17:45.129Z,100512.47
2023-09-01T08:20:14.499Z,100514.50
2023-09-01T08:22:43.006Z,100517.00
2023-09-01T08:25:10.624Z,100510.50
2023-09-01T08:27:37.838Z,100516.03
2023-09-01T08:30:06.364Z,100512.22
2023-09-01T08:32:34.592Z,100518.75
2023-09-01T08:35:06.468Z,100517.03
2023-09-01T08:37:33.890Z,100525.69
2023-09-01T08:40:01.856Z,100525.41
2023-09-01T08:42:31.488Z,100516.00
2023-09-01T08:45:00.629Z,100543.66
2023-09-01T08:47:33.427Z,100533.69
2023-09-01T08:50:01.848Z,100525.84
2023-09-01T08:52:30.611Z,100537.00
2023-09-01T08:54:57.602Z,100532.63
2023-09-01T08:57:25.934Z,100534.03
2023-09-01T08:59:52.906Z,100537.28
2023-09-01T09:02:19.859Z,100537.44
2023-09-01T09:04:49.446Z,100541.66
2023-09-01T09:07:18.518Z,100540.81
2023-09-01T09:10:02.732Z,100543.25
2023-09-01T09:12:43.062Z,100551.00
2023-09-01T09:15:12.257Z,100549.31
2023-09-01T09:17:47.306Z,100555.94
2023-09-01T09:20:16.490Z,100544.09
2023-09-01T09:22:58.235Z,100545.78
2023-09-01T09:25:33.645Z,100537.06
2023-09-01T09:28:17.046Z,100529.00
2023-09-01T09:30:54.242Z,100530.25
2023-09-01T09:33:34.519Z,100536.75
2023-09-01T09:36:02.519Z,100529.84
2023-09-01T09:38:47.686Z,100551.03
2023-09-01T09:41:15.226Z,100529.41
2023-09-01T09:43:49.771Z,100544.00
2023-09-01T09:46:18.548Z,100528.47
2023-09-01T09:48:46.513Z,100540.47
2023-09-01T09:51:17.544Z,100541.75
2023-09-01T09:53:47.400Z,100543.16
2023-09-01T09:56:21.246Z,100555.72
2023-09-01T09:58:50.041Z,100546.09
2023-09-01T10:01:20.729Z,100551.47
2023-09-01T10:03:50.077Z,100540.72
2023-09-01T10:06:18.880Z,100539.03
2023-09-01T10:08:48.971Z,100538.84
2023-09-01T10:11:16.829Z,100551.44
2023-09-01T10:13:47.392Z,100554.38
2023-09-01T10:16:15.090Z,100547.34
2023-09-01T10:18:45.207Z,100558.63
2023-09-01T10:21:15.690Z,100547.97
2023-09-01T10:23:45.584Z,100547.81
2023-09-01T10:26:17.487Z,100558.06
2023-09-01T10:29:02.678Z,100558.88
2023-09-01T10:31:30.373Z,100544.19
2023-09-01T10:34:15.885Z,100546.84
2023-09-01T10:36:45.133Z,100548.53
2023-09-01T10:39:23.568Z,100552.06
2023-09-01T10:41:55.677Z,100539.03
2023-09-01T10:44:27.748Z,100543.75
2023-09-01T10:46:56.869Z,100544.22
2023-09-01T10:49:57.610Z,100561.41
2023-09-01T10:52:24.661Z,100552.03
2023-09-01T10:55:01.477Z,100551.78
2023-09-01T10:57:48.353Z,100550.16
2023-09-01T11:00:34.545Z,100550.72
2023-09-01T11:03:40.878Z,100549.56
2023-09-01T11:06:10.172Z,100541.34
2023-09-01T11:08:57.090Z,100534.94
2023-09-01T11:11:24.761Z,100535.56
2023-09-01T11:13:55.574Z,100534.44
2023-09-01T11:16:24.000Z,100530.22
2023-09-01T11:19:04.046Z,100552.69
2023-09-01T11:21:32.329Z,100542.25
2023-09-01T11:24:01.816Z,100541.34
2023-09-01T11:26:30.055Z,100544.06
2023-09-01T11:28:57.644Z,100543.88
2023-09-01T11:31:24.638Z,100555.13
2023-09-01T11:33:58.742Z,100545.66
2023-09-01T11:36:25.701Z,100546.63
2023-09-01T11:38:57.185Z,100547.66
2023-09-01T11:41:27.915Z,100561.31
2023-09-01T11:43:57.763Z,100556.28
2023-09-01T11:46:32.933Z,100552.06
2023-09-01T11:49:02.295Z,100538.25
2023-09-01T11:51:32.978Z,100553.38
2023-09-01T11:54:01.251Z,100546.50
2023-09-01T11:56:28.499Z,100546.91
2023-09-01T11:59:00.564Z,100550.03
2023-09-01T12:01:49.788Z,100562.53
2023-09-01T12:04:16.892Z,100558.84
2023-09-01T12:06:49.130Z,100557.03
2023-09-01T12:09:18.280Z,100558.50
2023-09-01T12:12:00.183Z,100558.66
2023-09-01T12:14:32.299Z,100564.25
2023-09-01T12:17:04.932Z,100564.56
2023-09-01T12:19:48.204Z,100567.53
2023-09-01T12:22:15.994Z,100562.34
2023-09-01T12:24:56.303Z,100585.69
2023-09-01T12:27:27.244Z,100589.00
2023-09-01T12:29:55.204Z,100570.09
2023-09-01T12:32:22.453Z,100559.34
2023-09-01T12:34:51.446Z,100560.13
2023-09-01T12:37:20.769Z,100561.88
2023-09-01T12:39:47.851Z,100561.75
2023-09-01T12:42:14.795Z,100561.88
2023-09-01T12:44:43.089Z,100565.78
2023-09-01T12:47:10.581Z,100570.38
2023-09-01T12:49:38.422Z,100567.25
2023-09-01T12:52:06.205Z,100563.91
2023-09-01T12:54:33.301Z,100570.84
2023-09-01T12:57:01.511Z,100559.72
2023-09-01T12:59:28.562Z,100554.97
2023-09-01T13:01:55.950Z,100571.66
2023-09-01T13:04:23.695Z,100563.59
2023-09-01T13:06:50.768Z,100555.16
2023-09-01T13:09:18.517Z,100570.16
2023-09-01T13:11:46.910Z,100559.19
2023-09-01T13:14:15.230Z,100576.75
2023-09-01T13:16:42.381Z,100568.78
2023-09-01T13:19:10.702Z,100560.84
2023-09-01T13:21:37.662Z,100557.84
2023-09-01T13:24:06.720Z,100565.91
2023-09-01T13:26:34.704Z,100581.75
2023-09-01T13:29:06.326Z,100565.88
2023-09-01T13:31:33.702Z,100572.91
2023-09-01T13:34:00.727Z,100575.59
2023-09-01T13:36:28.971Z,100567.53
2023-09-01T13:38:57.780Z,100558.13
2023-09-01T13:41:29.329Z,100555.72
2023-09-01T13:43:56.397Z,100554.03
2023-09-01T13:46:28.362Z,100565.19
2023-09-01T13:49:00.261Z,100561.50
2023-09-01T13:51:29.420Z,100560.31
2023-09-01T13:53:57.953Z,100559.06
2023-09-01T13:56:26.329Z,100555.66
2023-09-01T13:58:54.825Z,100553.28
2023-09-01T14:01:21.891Z,100548.47
2023-09-01T14:03:49.000Z,100550.00
2023-09-01T14:06:17.836Z,100557.72
2023-09-01T14:08:44.779Z,100556.88
2023-09-01T14:11:12.889Z,100553.66
2023-09-01T14:13:40.174Z,100551.66
2023-09-01T14:16:09.274Z,100558.88
2023-09-01T14:18:37.342Z,100557.34
2023-09-01T14:21:06.350Z,100547.06
2023-09-01T14:23:33.259Z,100549.97
2023-09-01T14:26:00.320Z,100540.69
2023-09-01T14:28:27.316Z,100551.31
2023-09-01T14:30:54.880Z,100550.56
2023-09-01T14:33:27.542Z,100544.53
2023-09-01T14:36:05.146Z,100540.16
2023-09-01T14:38:32.502Z,100550.78
2023-09-01T14:40:59.536Z,100560.72
2023-09-01T14:43:29.003Z,100559.03
2023-09-01T14:45:57.495Z,100559.94
2023-09-01T14:48:25.944Z,100554.88
2023-09-01T14:50:52.913Z,100559.19
2023-09-01T14:53:20.674Z,100557.31
2023-09-01T14:55:47.818Z,100566.69
2023-09-01T14:58:15.222Z,100559.06
2023-09-01T15:00:42.688Z,100563.63
2023-09-01T15:03:09.778Z,100567.13
2023-09-01T15:05:40.211Z,100562.06
2023-09-01T15:08:07.178Z,100569.44
2023-09-01T15:10:36.484Z,100565.75
2023-09-01T15:13:21.060Z,100566.69
2023-09-01T15:15:49.695Z,100566.59
2023-09-01T15:18:16.885Z,100558.28
2023-09-01T15:20:45.635Z,100560.34
2023-09-01T15:23:12.987Z,100565.41
2023-09-01T15:25:41.310Z,100564.97
2023-09-01T15:28:08.408Z,100559.03
2023-09-01T15:30:35.388Z,100558.03
2023-09-01T15:33:02.726Z,100553.63
2023-09-01T15:35:34.590Z,100557.81
2023-09-01T15:38:02.144Z,100554.22
2023-09-01T15:40:30.096Z,100547.38
2023-09-01T15:42:57.400Z,100552.06
2023-09-01T15:45:25.542Z,100554.75
2023-09-01T15:47:52.711Z,100567.00
2023-09-01T15:50:34.954Z,100568.00
2023-09-01T15:53:09.582Z,100572.06
2023-09-01T15:55:39.203Z,100567.44
2023-09-01T15:58:06.965Z,100568.75
2023-09-01T16:00:36.023Z,100565.22
2023-09-01T16:03:03.118Z,100578.34
2023-09-01T16:05:32.575Z,100569.06
2023-09-01T16:07:59.562Z,100559.09
2023-09-01T16:10:27.189Z,100567.84
2023-09-01T16:12:57.040Z,100574.41
2023-09-01T16:15:26.791Z,100581.44
2023-09-01T16:17:54.868Z,100577.13
2023-09-01T16:20:22.293Z,100577.13
2023-09-01T16:22:50.261Z,100569.88
2023-09-01T16:25:18.324Z,100565.66
2023-09-01T16:27:46.018Z,100570.44
2023-09-01T16:30:14.050Z,100566.75
2023-09-01T16:32:41.356Z,100565.03
2023-09-01T16:35:23.867Z,100563.81
2023-09-01T16:37:52.724Z,100571.53
2023-09-01T16:40:24.182Z,100568.47
2023-09-01T16:42:55.362Z,100571.72
2023-09-01T16:45:22.419Z,100576.41
2023-09-01T16:47:49.549Z,100575.56
2023-09-01T16:50:17.930Z,100572.19
2023-09-01T16:52:45.178Z,100573.81
2023-09-01T16:55:12.559Z,100571.03
2023-09-01T16:57:42.339Z,100577.03
2023-09-01T17:00:12.483Z,100575.47
2023-09-01T17:02:39.993Z,100571.09
2023-09-01T17:05:09.098Z,100578.66
2023-09-01T17:07:38.110Z,100585.72
2023-09-01T17:10:07.542Z,100586.97
2023-09-01T17:12:35.234Z,100581.72
2023-09-01T17:15:03.412Z,100588.78
2023-09-01T17:17:30.576Z,100586.56
2023-09-01T17:19:57.568Z,100587.88
2023-09-01T17:22:24.490Z,100587.47
2023-09-01T17:24:51.736Z,100584.56
2023-09-01T17:27:18.694Z,100591.50
2023-09-01T17:29:45.689Z,100589.59
2023-09-01T17:32:12.712Z,100596.97
2023-09-01T17:34:42.894Z,100590.19
2023-09-01T17:37:12.992Z,100591.81
2023-09-01T17:39:40.009Z,100588.56
2023-09-01T17:42:07.551Z,100591.25
2023-09-01T17:44:34.595Z,100592.38
2023-09-01T17:47:01.867Z,100587.44
2023-09-01T17:49:30.623Z,100589.44
2023-09-01T17:51:59.332Z,100593.97
2023-09-01T17:54:27.104Z,100596.28
2023-09-01T17:56:54.512Z,100604.72
2023-09-01T17:59:21.558Z,100603.19
2023-09-01T18:01:52.199Z,100610.69
2023-09-01T18:04:20.558Z,100615.81
2023-09-01T18:06:48.207Z,100611.56
2023-09-01T18:09:15.649Z,100614.72
2023-09-01T18:11:42.751Z,100618.69
2023-09-01T18:14:09.894Z,100617.97
2023-09-01T18:16:37.586Z,100617.41
2023-09-01T18:19:05.187Z,100625.63
2023-09-01T18:21:35.281Z,100621.53
2023-09-01T18:24:08.431Z,100648.28
2023-09-01T18:26:36.678Z,100647.03
2023-09-01T18:29:03.706Z,100641.06
2023-09-01T18:31:33.758Z,100638.81
2023-09-01T18:34:01.729Z,100648.28
2023-09-01T18:36:30.339Z,100651.69
2023-09-01T18:38:58.521Z,100642.09
2023-09-01T18:41:28.269Z,100631.75
2023-09-01T18:43:57.766Z,100640.94
2023-09-01T18:46:32.480Z,100640.66
2023-09-01T18:49:02.575Z,100644.63
2023-09-01T18:51:29.514Z,100647.59
2023-09-01T18:53:56.990Z,100648.00
2023-09-01T18:56:24.157Z,100648.16
2023-09-01T18:58:51.441Z,100650.13
2023-09-01T19:01:19.576Z,100659.31
2023-09-01T19:03:47.380Z,100655.22
2023-09-01T19:06:27.362Z,100660.00
2023-09-01T19:08:54.389Z,100661.00
2023-09-01T19:11:22.283Z,100663.69
2023-09-01T19:13:56.434Z,100669.19
2023-09-01T19:16:23.854Z,100664.91
2023-09-01T19:18:51.478Z,100662.22
2023-09-01T19:21:31.652Z,100666.88
2023-09-01T19:23:58.635Z,100671.56
2023-09-01T19:26:27.221Z,100663.91
2023-09-01T19:28:56.640Z,100668.44
2023-09-01T19:31:26.328Z,100672.38
2023-09-01T19:33:56.368Z,100678.88
2023-09-01T19:36:29.524Z,100680.84
2023-09-01T19:38:57.255Z,100678.72
2023-09-01T19:41:24.360Z,100677.84
2023-09-01T19:43:56.788Z,100684.22
2023-09-01T19:46:24.300Z,100683.06
2023-09-01T19:48:53.545Z,100683.19
2023-09-01T19:51:21.841Z,100693.19
2023-09-01T19:53:49.089Z,100682.75
2023-09-01T19:56:17.650Z,100687.28
2023-09-01T19:58:50.054Z,100683.47
2023-09-01T20:01:27.164Z,100682.06
2023-09-01T20:03:54.557Z,100694.59
2023-09-01T20:06:27.273Z,100691.31
2023-09-01T20:09:02.086Z,100693.69
2023-09-01T20:11:29.098Z,100695.94
2023-09-01T20:13:57.489Z,100699.63
2023-09-01T20:16:31.672Z,100699.75
2023-09-01T20:19:19.031Z,100703.66
2023-09-01T20:21:47.377Z,100699.41
2023-09-01T20:24:14.753Z,100705.78
2023-09-01T20:26:41.665Z,100705.06
2023-09-01T20:29:08.573Z,100707.16
2023-09-01T20:31:37.984Z,100708.25
2023-09-01T20:34:08.439Z,100714.03
2023-09-01T20:36:35.463Z,100717.84
2023-09-01T20:39:02.866Z,100717.84
2023-09-01T20:41:29.763Z,100720.50
2023-09-01T20:43:56.701Z,100724.16
2023-09-01T20:46:23.753Z,100719.69
2023-09-01T20:48:51.205Z,100727.59
2023-09-01T20:51:19.167Z,100717.00
2023-09-01T20:53:46.390Z,100726.16
2023-09-01T20:56:13.358Z,100722.88
2023-09-01T20:58:40.334Z,100729.34
2023-09-01T21:01:07.285Z,100736.94
2023-09-01T21:03:34.752Z,100734.91
2023-09-01T21:06:01.805Z,100739.69
2023-09-01T21:08:28.744Z,100739.91
2023-09-01T21:10:56.030Z,100741.13
2023-09-01T21:13:22.964Z,100740.53
2023-09-01T21:15:51.827Z,100741.63
2023-09-01T21:18:19.654Z,100741.06
2023-09-01T21:20:46.713Z,100737.66
2023-09-01T21:23:13.742Z,100739.63
2023-09-01T21:25:41.005Z,100742.31
2023-09-01T21:28:07.904Z,100741.19
2023-09-01T21:30:36.617Z,100732.91
2023-09-01T21:33:07.730Z,100745.88
2023-09-01T21:35:35.070Z,100751.38
2023-09-01T21:38:02.742Z,100746.03
2023-09-01T21:40:30.143Z,100753.09
2023-09-01T21:42:57.655Z,100760.28
2023-09-01T21:45:25.018Z,100759.56
2023-09-01T21:47:52.692Z,100764.22
2023-09-01T21:50:19.884Z,100759.97
2023-09-01T21:52:47.314Z,100765.31
2023-09-01T21:55:14.377Z,100761.28
2023-09-01T21:57:42.676Z,100760.72
2023-09-01T22:00:10.412Z,100757.56
2023-09-01T22:02:39.890Z,100767.53
2023-09-01T22:05:07.282Z,100765.13
2023-09-01T22:07:34.924Z,100760.53
2023-09-01T22:10:02.001Z,100769.06
2023-09-01T22:12:29.871Z,100768.59
2023-09-01T22:14:57.739Z,100770.28
2023-09-01T22:17:25.645Z,100772.34
2023-09-01T22:19:53.680Z,100775.91
2023-09-01T22:22:21.005Z,100777.72
2023-09-01T22:24:48.162Z,100777.13
2023-09-01T22:27:16.175Z,100775.44
2023-09-01T22:29:43.047Z,100777.63
2023-09-01T22:32:11.329Z,100785.03
2023-09-01T22:34:39.358Z,100791.50
2023-09-01T22:37:06.802Z,100785.91
2023-09-01T22:39:34.831Z,100789.56
2023-09-01T22:42:03.198Z,100787.97
2023-09-01T22:44:30.198Z,100797.47
2023-09-01T22:46:58.613Z,100803.09
2023-09-01T22:49:26.610Z,100798.81
2023-09-01T22:51:53.796Z,100807.56
2023-09-01T22:54:21.089Z,100808.19
2023-09-01T22:56:47.994Z,100809.28
2023-09-01T22:59:15.117Z,100805.50
2023-09-01T23:01:43.188Z,100803.81
2023-09-01T23:04:10.222Z,100807.19
2023-09-01T23:06:37.231Z,100807.31
2023-09-01T23:09:06.674Z,100798.47
2023-09-01T23:11:34.148Z,100809.88
2023-09-01T23:14:01.544Z,100811.09
2023-09-01T23:16:29.044Z,100810.59
2023-09-01T23:19:00.444Z,100816.31
2023-09-01T23:21:27.857Z,100815.44
2023-09-01T23:23:56.192Z,100816.31
2023-09-01T23:26:26.068Z,100819.97
2023-09-01T23:28:53.331Z,100818.63
2023-09-01T23:31:26.413Z,100815.88
2023-09-01T23:33:54.995Z,100825.00
2023-09-01T23:36:22.323Z,100818.81
2023-09-01T23:38:49.244Z,100810.28
2023-09-01T23:41:16.191Z,100822.31
2023-09-01T23:43:43.942Z,100818.66
2023-09-01T23:46:12.230Z,100819.72
2023-09-01T23:48:39.716Z,100824.94
2023-09-01T23:51:08.194Z,100820.44
2023-09-01T23:53:37.892Z,100817.69
2023-09-01T23:56:05.039Z,100825.38
2023-09-01T23:58:31.940Z,100827.09
